sensor_id;sensor_type;location;lat;lon;timestamp;pressure;altitude;pressure_sealevel;temperature;humidity
16016;BME280;8112;53.592;10.184;2023-08-30T00:00:30;100512.13;;;13.98;100.00
16016;BME280;8112;53.592;10.184;2023-08-30T00:05:32;100513.09;;;14.08;100.00
16016;BME280;8112;53.592;10.184;2023-08-30T00:10:35;100502.03;;;14.15;100.00
16016;BME280;8112;53.592;10.184;2023-08-30T00:15:38;100500.09;;;14.17;100.00
16016;BME280;8112;53.592;10.184;2023-08-30T00:20:40;100495.88;;;14.25;100.00
16016;BME280;8112;53.592;10.184;2023-08-30T00:25:43;100504.44;;;14.52;100.00
16016;BME280;8112;53.592;10.184;2023-08-30T00:30:45;100509.22;;;14.70;100.00
16016;BME280;8112;53.592;10.184;2023-08-30T00:35:46;100503.94;;;14.70;100.00
16016;BME280;8112;53.592;10.184;2023-08-30T00:40:49;100507.41;;;14.70;100.00
16016;BME280;8112;53.592;10.184;2023-08-30T00:45:51;100503.72;;;14.50;100.00
16016;BME280;8112;53.592;10.184;2023-08-30T00:50:54;100503.00;;;14.14;100.00
16016;BME280;8112;53.592;10.184;2023-08-30T00:55:58;100492.38;;;13.91;100.00
16016;BME280;8112;53.592;10.184;2023-08-30T01:01:00;100497.63;;;13.68;100.00
16016;BME280;8112;53.592;10.184;2023-08-30T01:06:03;100494.97;;;13.57;100.00
16016;BME280;8112;53.592;10.184;2023-08-30T01:11:11;100494.97;;;13.57;100.00
16016;BME280;8112;53.592;10.184;2023-08-30T01:16:15;100493.13;;;13.57;100.00
16016;BME280;8112;53.592;10.184;2023-08-30T01:21:27;100485.16;;;13.93;100.00
16016;BME280;8112;53.592;10.184;2023-08-30T01:26:41;100475.75;;;14.00;100.00
16016;BME280;8112;53.592;10.184;2023-08-30T01:31:45;100470.03;;;13.59;100.00
16016;BME280;8112;53.592;10.184;2023-08-30T01:36:49;100466.75;;;13.44;100.00
16016;BME280;8112;53.592;10.184;2023-08-30T01:41:51;100467.41;;;13.35;100.00
16016;BME280;8112;53.592;10.184;2023-08-30T01:47:00;100458.75;;;13.33;100.00
16016;BME280;8112;53.592;10.184;2023-08-30T01:52:03;100462.63;;;13.40;100.00
16016;BME280;8112;53.592;10.184;2023-08-30T01:57:05;100455.22;;;13.45;100.00
16016;BME280;8112;53.592;10.184;2023-08-30T02:02:08;100458.75;;;13.80;100.00
16016;BME280;8112;53.592;10.184;2023-08-30T02:07:14;100453.31;;;13.70;100.00
16016;BME280;8112;53.592;10.184;2023-08-30T02:12:19;100448.22;;;13.44;100.00
16016;BME280;8112;53.592;10.184;2023-08-30T02:17:27;100454.69;;;13.40;100.00
16016;BME280;8112;53.592;10.184;2023-08-30T02:22:30;100450.50;;;13.13;100.00
16016;BME280;8112;53.592;10.184;2023-08-30T02:27:35;100452.03;;;13.04;100.00
16016;BME280;8112;53.592;10.184;2023-08-30T02:32:38;100455.94;;;13.23;100.00
16016;BME280;8112;53.592;10.184;2023-08-30T02:37:39;100447.50;;;13.53;100.00
16016;BME280;8112;53.592;10.184;2023-08-30T02:42:42;100450.69;;;13.59;100.00
16016;BME280;8112;53.592;10.184;2023-08-30T02:47:47;100449.50;;;13.86;100.00
16016;BME280;8112;53.592;10.184;2023-08-30T02:52:49;100439.41;;;14.02;100.00
16016;BME280;8112;53.592;10.184;2023-08-30T02:57:51;100454.56;;;13.77;100.00
16016;BME280;8112;53.592;10.184;2023-08-30T03:02:54;100444.66;;;13.57;100.00
16016;BME280;8112;53.592;10.184;2023-08-30T03:07:56;100435.75;;;13.58;100.00
16016;BME280;8112;53.592;10.184;2023-08-30T03:12:58;100433.09;;;13.58;100.00
16016;BME280;8112;53.592;10.184;2023-08-30T03:18:01;100432.16;;;13.81;100.00
16016;BME280;8112;53.592;10.184;2023-08-30T03:23:05;100441.28;;;13.66;100.00
16016;BME280;8112;53.592;10.184;2023-08-30T03:28:08;100448.63;;;13.51;100.00
16016;BME280;8112;53.592;10.184;2023-08-30T03:33:11;100439.72;;;13.52;100.00
16016;BME280;8112;53.592;10.184;2023-08-30T03:38:13;100434.13;;;13.44;100.00
16016;BME280;8112;53.592;10.184;2023-08-30T03:43:15;100432.88;;;13.61;100.00
16016;BME280;8112;53.592;10.184;2023-08-30T03:48:18;100432.72;;;13.51;100.00
16016;BME280;8112;53.592;10.184;2023-08-30T03:53:21;100428.50;;;13.48;100.00
16016;BME280;8112;53.592;10.184;2023-08-30T03:58:23;100409.75;;;13.63;100.00
16016;BME280;8112;53.592;10.184;2023-08-30T04:03:26;100413.53;;;13.83;100.00
16016;BME280;8112;53.592;10.184;2023-08-30T04:08:28;100405.19;;;13.88;100.00
16016;BME280;8112;53.592;10.184;2023-08-30T04:13:32;100406.75;;;13.90;100.00
16016;BME280;8112;53.592;10.184;2023-08-30T04:18:38;100393.06;;;13.85;100.00
16016;BME280;8112;53.592;10.184;2023-08-30T04:23:40;100394.13;;;13.82;100.00
16016;BME280;8112;53.592;10.184;2023-08-30T04:28:42;100392.44;;;13.81;100.00
16016;BME280;8112;53.592;10.184;2023-08-30T04:33:45;100382.81;;;13.92;100.00
16016;BME280;8112;53.592;10.184;2023-08-30T04:38:47;100374.59;;;14.06;100.00
16016;BME280;8112;53.592;10.184;2023-08-30T04:43:51;100374.84;;;14.15;100.00
16016;BME280;8112;53.592;10.184;2023-08-30T04:48:54;100379.88;;;14.29;100.00
16016;BME280;8112;53.592;10.184;2023-08-30T04:53:56;100374.78;;;14.37;100.00
16016;BME280;8112;53.592;10.184;2023-08-30T04:58:58;100380.66;;;14.52;100.00
16016;BME280;8112;53.592;10.184;2023-08-30T05:04:01;100377.09;;;14.63;100.00
16016;BME280;8112;53.592;10.184;2023-08-30T05:09:03;100389.78;;;14.71;100.00
16016;BME280;8112;53.592;10.184;2023-08-30T05:14:05;100390.59;;;14.83;100.00
16016;BME280;8112;53.592;10.184;2023-08-30T05:19:08;100388.31;;;15.00;100.00
16016;BME280;8112;53.592;10.184;2023-08-30T05:24:10;100380.78;;;15.16;100.00
16016;BME280;8112;53.592;10.184;2023-08-30T05:29:12;100378.50;;;15.33;100.00
16016;BME280;8112;53.592;10.184;2023-08-30T05:34:15;100373.19;;;15.33;100.00
16016;BME280;8112;53.592;10.184;2023-08-30T05:39:29;100380.38;;;15.42;100.00
16016;BME280;8112;53.592;10.184;2023-08-30T05:44:31;100379.91;;;15.58;100.00
16016;BME280;8112;53.592;10.184;2023-08-30T05:49:34;100375.44;;;15.90;100.00
16016;BME280;8112;53.592;10.184;2023-08-30T05:54:36;100364.19;;;16.17;100.00
16016;BME280;8112;53.592;10.184;2023-08-30T05:59:38;100366.06;;;16.27;100.00
16016;BME280;8112;53.592;10.184;2023-08-30T06:04:41;100361.88;;;16.44;100.00
16016;BME280;8112;53.592;10.184;2023-08-30T06:09:43;100352.88;;;16.25;100.00
16016;BME280;8112;53.592;10.184;2023-08-30T06:14:45;100346.19;;;16.60;100.00
16016;BME280;8112;53.592;10.184;2023-08-30T06:19:53;100348.56;;;16.73;100.00
16016;BME280;8112;53.592;10.184;2023-08-30T06:24:55;100327.44;;;16.72;100.00
16016;BME280;8112;53.592;10.184;2023-08-30T06:29:57;100335.31;;;17.03;100.00
16016;BME280;8112;53.592;10.184;2023-08-30T06:35:00;100326.28;;;17.23;100.00
16016;BME280;8112;53.592;10.184;2023-08-30T06:40:03;100320.28;;;17.21;100.00
16016;BME280;8112;53.592;10.184;2023-08-30T06:45:06;100334.78;;;17.75;100.00
16016;BME280;8112;53.592;10.184;2023-08-30T06:50:09;100322.31;;;18.03;100.00
16016;BME280;8112;53.592;10.184;2023-08-30T06:55:11;100312.53;;;17.94;100.00
16016;BME280;8112;53.592;10.184;2023-08-30T07:00:13;100312.88;;;18.27;100.00
16016;BME280;8112;53.592;10.184;2023-08-30T07:05:17;100310.16;;;18.55;100.00
16016;BME280;8112;53.592;10.184;2023-08-30T07:10:18;100300.84;;;18.77;100.00
16016;BME280;8112;53.592;10.184;2023-08-30T07:15:20;100303.88;;;18.64;100.00
16016;BME280;8112;53.592;10.184;2023-08-30T07:20:23;100287.59;;;19.20;100.00
16016;BME280;8112;53.592;10.184;2023-08-30T07:25:25;100294.31;;;19.59;100.00
16016;BME280;8112;53.592;10.184;2023-08-30T07:30:27;100290.97;;;19.22;100.00
16016;BME280;8112;53.592;10.184;2023-08-30T07:35:30;100295.84;;;19.01;100.00
16016;BME280;8112;53.592;10.184;2023-08-30T07:40:31;100298.69;;;19.34;100.00
16016;BME280;8112;53.592;10.184;2023-08-30T07:45:33;100301.47;;;19.50;100.00
16016;BME280;8112;53.592;10.184;2023-08-30T07:50:36;100305.69;;;19.61;100.00
16016;BME280;8112;53.592;10.184;2023-08-30T07:55:38;100303.47;;;19.48;100.00
16016;BME280;8112;53.592;10.184;2023-08-30T08:00:40;100312.81;;;19.52;100.00
16016;BME280;8112;53.592;10.184;2023-08-30T08:05:43;100307.50;;;19.26;100.00
16016;BME280;8112;53.592;10.184;2023-08-30T08:10:45;100309.22;;;19.70;100.00
16016;BME280;8112;53.592;10.184;2023-08-30T08:15:46;100303.34;;;20.01;100.00
16016;BME280;8112;53.592;10.184;2023-08-30T08:20:50;100306.41;;;20.23;100.00
16016;BME280;8112;53.592;10.184;2023-08-30T08:25:57;100313.19;;;19.92;100.00
16016;BME280;8112;53.592;10.184;2023-08-30T08:30:59;100306.44;;;20.31;100.00
16016;BME280;8112;53.592;10.184;2023-08-30T08:36:02;100312.56;;;20.07;100.00
16016;BME280;8112;53.592;10.184;2023-08-30T08:41:05;100310.44;;;20.77;100.00
16016;BME280;8112;53.592;10.184;2023-08-30T08:46:09;100312.13;;;20.61;100.00
16016;BME280;8112;53.592;10.184;2023-08-30T08:51:14;100305.09;;;20.77;100.00
16016;BME280;8112;53.592;10.184;2023-08-30T08:56:16;100314.78;;;20.36;100.00
16016;BME280;8112;53.592;10.184;2023-08-30T09:01:19;100312.94;;;20.70;100.00
16016;BME280;8112;53.592;10.184;2023-08-30T09:06:22;100310.78;;;20.57;100.00
16016;BME280;8112;53.592;10.184;2023-08-30T09:11:24;100311.47;;;20.84;100.00
16016;BME280;8112;53.592;10.184;2023-08-30T09:16:25;100314.16;;;20.92;100.00
16016;BME280;8112;53.592;10.184;2023-08-30T09:21:29;100311.81;;;20.89;100.00
16016;BME280;8112;53.592;10.184;2023-08-30T09:26:33;100309.72;;;21.33;100.00
16016;BME280;8112;53.592;10.184;2023-08-30T09:31:37;100309.00;;;21.47;100.00
16016;BME280;8112;53.592;10.184;2023-08-30T09:36:42;100307.28;;;21.55;100.00
16016;BME280;8112;53.592;10.184;2023-08-30T09:41:47;100297.66;;;21.29;100.00
16016;BME280;8112;53.592;10.184;2023-08-30T09:46:50;100297.06;;;21.58;100.00
16016;BME280;8112;53.592;10.184;2023-08-30T09:51:54;100294.31;;;22.06;100.00
16016;BME280;8112;53.592;10.184;2023-08-30T09:56:56;100294.94;;;21.85;100.00
16016;BME280;8112;53.592;10.184;2023-08-30T10:02:01;100289.81;;;22.07;100.00
16016;BME280;8112;53.592;10.184;2023-08-30T10:07:06;100294.09;;;22.16;100.00
16016;BME280;8112;53.592;10.184;2023-08-30T10:12:10;100292.81;;;21.72;100.00
16016;BME280;8112;53.592;10.184;2023-08-30T10:17:12;100291.06;;;21.96;100.00
16016;BME280;8112;53.592;10.184;2023-08-30T10:22:17;100298.81;;;21.83;100.00
16016;BME280;8112;53.592;10.184;2023-08-30T10:27:20;100284.94;;;21.31;100.00
16016;BME280;8112;53.592;10.184;2023-08-30T10:32:23;100292.63;;;21.34;100.00
16016;BME280;8112;53.592;10.184;2023-08-30T10:37:26;100291.84;;;21.57;100.00
16016;BME280;8112;53.592;10.184;2023-08-30T10:42:28;100288.53;;;21.55;100.00
16016;BME280;8112;53.592;10.184;2023-08-30T10:47:32;100293.88;;;21.63;100.00
16016;BME280;8112;53.592;10.184;2023-08-30T10:52:37;100293.16;;;21.13;100.00
16016;BME280;8112;53.592;10.184;2023-08-30T10:57:42;100285.94;;;21.30;100.00
16016;BME280;8112;53.592;10.184;2023-08-30T11:02:45;100288.38;;;21.48;100.00
16016;BME280;8112;53.592;10.184;2023-08-30T11:07:49;100287.81;;;21.69;100.00
16016;BME280;8112;53.592;10.184;2023-08-30T11:12:51;100282.09;;;22.04;100.00
16016;BME280;8112;53.592;10.184;2023-08-30T11:18:02;100273.31;;;22.80;100.00
16016;BME280;8112;53.592;10.184;2023-08-30T11:23:05;100261.69;;;23.33;100.00
16016;BME280;8112;53.592;10.184;2023-08-30T11:28:07;100273.03;;;22.90;100.00
16016;BME280;8112;53.592;10.184;2023-08-30T11:33:08;100254.78;;;22.70;100.00
16016;BME280;8112;53.592;10.184;2023-08-30T11:38:13;100259.81;;;22.50;100.00
16016;BME280;8112;53.592;10.184;2023-08-30T11:43:15;100257.81;;;22.44;100.00
16016;BME280;8112;53.592;10.184;2023-08-30T11:48:17;100255.41;;;22.57;100.00
16016;BME280;8112;53.592;10.184;2023-08-30T11:53:20;100252.84;;;22.79;100.00
16016;BME280;8112;53.592;10.184;2023-08-30T11:58:22;100247.25;;;22.66;100.00
16016;BME280;8112;53.592;10.184;2023-08-30T12:03:26;100244.03;;;22.70;100.00
16016;BME280;8112;53.592;10.184;2023-08-30T12:08:31;100232.31;;;22.48;100.00
16016;BME280;8112;53.592;10.184;2023-08-30T12:13:33;100232.25;;;22.56;100.00
16016;BME280;8112;53.592;10.184;2023-08-30T12:18:35;100223.00;;;22.35;100.00
16016;BME280;8112;53.592;10.184;2023-08-30T12:23:38;100220.94;;;21.99;100.00
16016;BME280;8112;53.592;10.184;2023-08-30T12:28:41;100217.91;;;22.26;100.00
16016;BME280;8112;53.592;10.184;2023-08-30T12:33:44;100216.25;;;22.93;100.00
16016;BME280;8112;53.592;10.184;2023-08-30T12:38:47;100209.50;;;22.44;100.00
16016;BME280;8112;53.592;10.184;2023-08-30T12:43:49;100208.28;;;23.00;100.00
16016;BME280;8112;53.592;10.184;2023-08-30T12:48:51;100196.44;;;23.09;100.00
16016;BME280;8112;53.592;10.184;2023-08-30T12:53:54;100184.94;;;22.55;100.00
16016;BME280;8112;53.592;10.184;2023-08-30T12:58:56;100175.78;;;22.95;100.00
16016;BME280;8112;53.592;10.184;2023-08-30T13:03:58;100173.00;;;22.73;100.00
16016;BME280;8112;53.592;10.184;2023-08-30T13:09:01;100165.41;;;22.76;100.00
16016;BME280;8112;53.592;10.184;2023-08-30T13:14:03;100159.56;;;22.58;100.00
16016;BME280;8112;53.592;10.184;2023-08-30T13:19:05;100152.97;;;22.45;100.00
16016;BME280;8112;53.592;10.184;2023-08-30T13:24:08;100144.94;;;22.60;100.00
16016;BME280;8112;53.592;10.184;2023-08-30T13:29:10;100159.69;;;22.26;100.00
16016;BME280;8112;53.592;10.184;2023-08-30T13:34:11;100158.50;;;22.05;100.00
16016;BME280;8112;53.592;10.184;2023-08-30T13:39:14;100146.81;;;22.75;100.00
16016;BME280;8112;53.592;10.184;2023-08-30T13:44:16;100148.56;;;23.49;100.00
16016;BME280;8112;53.592;10.184;2023-08-30T13:49:18;100148.84;;;22.88;100.00
16016;BME280;8112;53.592;10.184;2023-08-30T13:54:22;100145.22;;;22.66;100.00
16016;BME280;8112;53.592;10.184;2023-08-30T13:59:23;100134.13;;;23.20;100.00
16016;BME280;8112;53.592;10.184;2023-08-30T14:04:25;100127.38;;;23.83;100.00
16016;BME280;8112;53.592;10.184;2023-08-30T14:09:28;100127.66;;;23.95;100.00
16016;BME280;8112;53.592;10.184;2023-08-30T14:14:30;100121.56;;;23.80;100.00
16016;BME280;8112;53.592;10.184;2023-08-30T14:19:33;100110.28;;;22.96;100.00
16016;BME280;8112;53.592;10.184;2023-08-30T14:24:36;100117.38;;;23.18;100.00
16016;BME280;8112;53.592;10.184;2023-08-30T14:29:38;100117.56;;;23.17;100.00
16016;BME280;8112;53.592;10.184;2023-08-30T14:34:40;100111.50;;;22.93;100.00
16016;BME280;8112;53.592;10.184;2023-08-30T14:39:43;100120.78;;;22.90;100.00
16016;BME280;8112;53.592;10.184;2023-08-30T14:44:48;100119.63;;;22.40;100.00
16016;BME280;8112;53.592;10.184;2023-08-30T14:49:50;100129.38;;;22.02;100.00
16016;BME280;8112;53.592;10.184;2023-08-30T14:54:53;100125.41;;;21.75;100.00
16016;BME280;8112;53.592;10.184;2023-08-30T14:59:55;100121.19;;;21.49;100.00
16016;BME280;8112;53.592;10.184;2023-08-30T15:04:57;100120.34;;;21.48;100.00
16016;BME280;8112;53.592;10.184;2023-08-30T15:10:00;100122.31;;;21.55;100.00
16016;BME280;8112;53.592;10.184;2023-08-30T15:15:03;100128.00;;;21.60;100.00
16016;BME280;8112;53.592;10.184;2023-08-30T15:20:06;100116.66;;;21.49;100.00
16016;BME280;8112;53.592;10.184;2023-08-30T15:25:09;100116.41;;;21.36;100.00
16016;BME280;8112;53.592;10.184;2023-08-30T15:30:12;100117.44;;;20.95;100.00
16016;BME280;8112;53.592;10.184;2023-08-30T15:35:14;100117.34;;;20.80;100.00
16016;BME280;8112;53.592;10.184;2023-08-30T15:40:17;100107.50;;;20.64;100.00
16016;BME280;8112;53.592;10.184;2023-08-30T15:45:19;100106.09;;;20.36;100.00
16016;BME280;8112;53.592;10.184;2023-08-30T15:50:21;100116.81;;;20.03;100.00
16016;BME280;8112;53.592;10.184;2023-08-30T15:55:24;100117.66;;;19.96;100.00
16016;BME280;8112;53.592;10.184;2023-08-30T16:00:28;100114.09;;;19.62;100.00
16016;BME280;8112;53.592;10.184;2023-08-30T16:05:30;100111.34;;;19.20;100.00
16016;BME280;8112;53.592;10.184;2023-08-30T16:10:33;100109.50;;;19.13;100.00
16016;BME280;8112;53.592;10.184;2023-08-30T16:15:35;100106.25;;;19.01;100.00
16016;BME280;8112;53.592;10.184;2023-08-30T16:20:37;100101.78;;;18.66;100.00
16016;BME280;8112;53.592;10.184;2023-08-30T16:25:40;100105.28;;;18.67;100.00
16016;BME280;8112;53.592;10.184;2023-08-30T16:30:42;100107.72;;;18.60;100.00
16016;BME280;8112;53.592;10.184;2023-08-30T16:35:43;100094.06;;;18.63;100.00
16016;BME280;8112;53.592;10.184;2023-08-30T16:40:47;100096.16;;;18.43;100.00
16016;BME280;8112;53.592;10.184;2023-08-30T16:45:48;100088.56;;;18.30;100.00
16016;BME280;8112;53.592;10.184;2023-08-30T16:50:50;100100.69;;;18.25;100.00
16016;BME280;8112;53.592;10.184;2023-08-30T16:55:53;100111.63;;;17.95;100.00
16016;BME280;8112;53.592;10.184;2023-08-30T17:00:55;100120.03;;;17.36;100.00
16016;BME280;8112;53.592;10.184;2023-08-30T17:05:58;100126.03;;;16.82;100.00
16016;BME280;8112;53.592;10.184;2023-08-30T17:11:04;100142.31;;;16.31;100.00
16016;BME280;8112;53.592;10.184;2023-08-30T17:16:05;100146.13;;;15.99;100.00
16016;BME280;8112;53.592;10.184;2023-08-30T17:21:08;100153.41;;;15.97;100.00
16016;BME280;8112;53.592;10.184;2023-08-30T17:26:13;100161.47;;;16.35;100.00
16016;BME280;8112;53.592;10.184;2023-08-30T17:31:15;100174.91;;;16.43;100.00
16016;BME280;8112;53.592;10.184;2023-08-30T17:36:16;100180.19;;;16.53;100.00
16016;BME280;8112;53.592;10.184;2023-08-30T17:41:19;100184.66;;;16.52;100.00
16016;BME280;8112;53.592;10.184;2023-08-30T17:46:21;100183.53;;;16.55;100.00
16016;BME280;8112;53.592;10.184;2023-08-30T17:51:23;100186.75;;;16.59;100.00
16016;BME280;8112;53.592;10.184;2023-08-30T17:56:26;100177.53;;;16.53;100.00
16016;BME280;8112;53.592;10.184;2023-08-30T18:01:28;100177.41;;;16.45;100.00
16016;BME280;8112;53.592;10.184;2023-08-30T18:06:30;100178.41;;;16.24;100.00
16016;BME280;8112;53.592;10.184;2023-08-30T18:11:33;100174.50;;;16.18;100.00
16016;BME280;8112;53.592;10.184;2023-08-30T18:16:35;100178.00;;;16.19;100.00
16016;BME280;8112;53.592;10.184;2023-08-30T18:21:36;100178.84;;;16.19;100.00
16016;BME280;8112;53.592;10.184;2023-08-30T18:26:40;100192.84;;;16.12;100.00
16016;BME280;8112;53.592;10.184;2023-08-30T18:31:42;100193.38;;;16.05;100.00
16016;BME280;8112;53.592;10.184;2023-08-30T18:36:43;100197.19;;;15.93;100.00
16016;BME280;8112;53.592;10.184;2023-08-30T18:41:47;100211.16;;;15.95;100.00
16016;BME280;8112;53.592;10.184;2023-08-30T18:46:49;100212.97;;;16.04;100.00
16016;BME280;8112;53.592;10.184;2023-08-30T18:51:50;100214.53;;;16.17;100.00
16016;BME280;8112;53.592;10.184;2023-08-30T18:56:53;100205.97;;;16.23;100.00
16016;BME280;8112;53.592;10.184;2023-08-30T19:01:56;100207.22;;;16.29;100.00
16016;BME280;8112;53.592;10.184;2023-08-30T19:06:57;100206.53;;;16.36;100.00
16016;BME280;8112;53.592;10.184;2023-08-30T19:12:00;100216.88;;;16.39;100.00
16016;BME280;8112;53.592;10.184;2023-08-30T19:17:02;100208.75;;;16.51;100.00
16016;BME280;8112;53.592;10.184;2023-08-30T19:22:04;100209.13;;;16.66;100.00
16016;BME280;8112;53.592;10.184;2023-08-30T19:27:07;100207.00;;;16.79;100.00
16016;BME280;8112;53.592;10.184;2023-08-30T19:32:09;100201.97;;;16.76;100.00
16016;BME280;8112;53.592;10.184;2023-08-30T19:37:12;100209.00;;;16.67;100.00
16016;BME280;8112;53.592;10.184;2023-08-30T19:42:15;100211.25;;;16.62;100.00
16016;BME280;8112;53.592;10.184;2023-08-30T19:47:21;100210.84;;;16.57;100.00
16016;BME280;8112;53.592;10.184;2023-08-30T19:52:23;100208.44;;;16.64;100.00
16016;BME280;8112;53.592;10.184;2023-08-30T19:57:26;100218.97;;;16.46;100.00
16016;BME280;8112;53.592;10.184;2023-08-30T20:02:29;100212.16;;;16.14;100.00
16016;BME280;8112;53.592;10.184;2023-08-30T20:07:31;100217.72;;;16.01;100.00
16016;BME280;8112;53.592;10.184;2023-08-30T20:12:34;100208.97;;;15.69;100.00
16016;BME280;8112;53.592;10.184;2023-08-30T20:17:35;100188.31;;;15.73;100.00
16016;BME280;8112;53.592;10.184;2023-08-30T20:22:38;100177.09;;;15.69;100.00
16016;BME280;8112;53.592;10.184;2023-08-30T20:27:42;100169.00;;;15.61;100.00
16016;BME280;8112;53.592;10.184;2023-08-30T20:32:44;100188.53;;;15.40;100.00
16016;BME280;8112;53.592;10.184;2023-08-30T20:37:46;100179.53;;;15.21;100.00
16016;BME280;8112;53.592;10.184;2023-08-30T20:42:49;100178.13;;;15.27;100.00
16016;BME280;8112;53.592;10.184;2023-08-30T20:47:50;100175.63;;;15.25;100.00
16016;BME280;8112;53.592;10.184;2023-08-30T20:52:52;100168.03;;;15.11;100.00
16016;BME280;8112;53.592;10.184;2023-08-30T20:57:56;100170.25;;;15.06;100.00
16016;BME280;8112;53.592;10.184;2023-08-30T21:02:57;100184.53;;;15.15;100.00
16016;BME280;8112;53.592;10.184;2023-08-30T21:07:59;100184.75;;;15.02;100.00
16016;BME280;8112;53.592;10.184;2023-08-30T21:13:02;100182.09;;;15.02;100.00
16016;BME280;8112;53.592;10.184;2023-08-30T21:18:05;100180.13;;;14.94;100.00
16016;BME280;8112;53.592;10.184;2023-08-30T21:23:07;100192.44;;;15.05;100.00
16016;BME280;8112;53.592;10.184;2023-08-30T21:28:10;100196.25;;;15.12;100.00
16016;BME280;8112;53.592;10.184;2023-08-30T21:33:14;100188.94;;;15.04;100.00
16016;BME280;8112;53.592;10.184;2023-08-30T21:38:16;100188.56;;;15.09;100.00
16016;BME280;8112;53.592;10.184;2023-08-30T21:43:19;100190.69;;;15.25;100.00
16016;BME280;8112;53.592;10.184;2023-08-30T21:48:21;100183.41;;;15.17;100.00
16016;BME280;8112;53.592;10.184;2023-08-30T21:53:23;100183.00;;;15.22;100.00
16016;BME280;8112;53.592;10.184;2023-08-30T21:58:26;100180.94;;;15.25;100.00
16016;BME280;8112;53.592;10.184;2023-08-30T22:03:27;100187.50;;;15.21;100.00
16016;BME280;8112;53.592;10.184;2023-08-30T22:08:29;100173.94;;;15.24;100.00
16016;BME280;8112;53.592;10.184;2023-08-30T22:13:32;100185.97;;;15.29;100.00
16016;BME280;8112;53.592;10.184;2023-08-30T22:18:34;100183.72;;;15.34;100.00
16016;BME280;8112;53.592;10.184;2023-08-30T22:23:35;100187.25;;;15.34;100.00
16016;BME280;8112;53.592;10.184;2023-08-30T22:28:38;100185.00;;;15.30;100.00
16016;BME280;8112;53.592;10.184;2023-08-30T22:33:40;100192.69;;;15.43;100.00
16016;BME280;8112;53.592;10.184;2023-08-30T22:38:42;100192.69;;;15.43;100.00
16016;BME280;8112;53.592;10.184;2023-08-30T22:43:45;100182.56;;;15.17;100.00
16016;BME280;8112;53.592;10.184;2023-08-30T22:48:47;100193.53;;;15.33;100.00
16016;BME280;8112;53.592;10.184;2023-08-30T22:53:48;100196.31;;;15.32;100.00
16016;BME280;8112;53.592;10.184;2023-08-30T22:58:52;100182.25;;;15.41;100.00
16016;BME280;8112;53.592;10.184;2023-08-30T23:03:53;100184.63;;;15.44;100.00
16016;BME280;8112;53.592;10.184;2023-08-30T23:08:58;100187.13;;;15.46;100.00
16016;BME280;8112;53.592;10.184;2023-08-30T23:14:01;100179.28;;;15.34;100.00
16016;BME280;8112;53.592;10.184;2023-08-30T23:19:03;100177.09;;;15.08;100.00
16016;BME280;8112;53.592;10.184;2023-08-30T23:24:05;100185.91;;;15.09;100.00
16016;BME280;8112;53.592;10.184;2023-08-30T23:29:09;100188.72;;;15.17;100.00
16016;BME280;8112;53.592;10.184;2023-08-30T23:34:14;100183.41;;;15.17;100.00
16016;BME280;8112;53.592;10.184;2023-08-30T23:39:15;100188.81;;;15.06;100.00
16016;BME280;8112;53.592;10.184;2023-08-30T23:44:21;100187.75;;;14.87;100.00
16016;BME280;8112;53.592;10.184;2023-08-30T23:49:23;100190.84;;;14.92;100.00
16016;BME280;8112;53.592;10.184;2023-08-30T23:54:25;100200.69;;;15.02;100.00
16016;BME280;8112;53.592;10.184;2023-08-30T23:59:28;100188.66;;;15.07;100.00
